Time;durP1;ratioP1;P1;durP2;ratioP2;P2;SDS_P1;SDS_P2;PMS_P1;PMS_P2;Temp;Humidity;BMP_temperature;BMP_pressure;BME280_temperature;BME280_humidity;BME280_pressure;Samples;Min_cycle;Max_cycle;Signal;HPM_P1;HPM_P2
2022/07/27 00:00:57;;;;;;;2.45;1.25;;;;;;;17.80;51.18;101924.63;4988507;28;123887;-77
2022/07/27 00:03:24;;;;;;;2.78;1.10;;;;;;;17.78;51.24;101924.75;4988710;28;123758;-77
2022/07/27 00:05:51;;;;;;;2.50;1.40;;;;;;;17.76;51.20;101923.06;4987201;28;119199;-77
2022/07/27 00:08:19;;;;;;;5.57;1.20;;;;;;;17.75;51.33;101924.91;4988242;28;118697;-77
2022/07/27 00:10:46;;;;;;;3.15;1.20;;;;;;;17.75;51.33;101929.41;4988321;28;123741;-77
2022/07/27 00:13:14;;;;;;;2.17;1.38;;;;;;;17.73;51.29;101925.97;4970970;28;124041;-77
2022/07/27 00:15:42;;;;;;;3.85;1.33;;;;;;;17.73;51.38;101925.97;4969270;28;118817;-77
2022/07/27 00:18:09;;;;;;;3.45;1.30;;;;;;;17.71;51.41;101929.56;4987081;28;119049;-77
2022/07/27 00:20:38;;;;;;;3.60;1.40;;;;;;;17.71;51.34;101932.25;4954035;28;123536;-77
2022/07/27 00:23:06;;;;;;;2.78;1.30;;;;;;;17.69;51.44;101920.75;4971043;28;123337;-77
2022/07/27 00:25:34;;;;;;;3.22;1.38;;;;;;;17.69;51.41;101928.81;4989734;28;96821;-77
2022/07/27 00:28:02;;;;;;;2.47;1.20;;;;;;;17.68;51.47;101927.06;4951473;28;118167;-77
2022/07/27 00:30:30;;;;;;;4.28;1.42;;;;;;;17.67;51.51;101935.22;4970474;28;124405;-77
2022/07/27 00:32:57;;;;;;;3.22;1.23;;;;;;;17.66;51.47;101931.66;4955439;28;124273;-78
2022/07/27 00:35:24;;;;;;;4.85;1.30;;;;;;;17.65;51.48;101921.91;4969604;28;118286;-76
2022/07/27 00:37:52;;;;;;;4.43;1.50;;;;;;;17.64;51.47;101920.16;4987192;28;120615;-77
2022/07/27 00:40:19;;;;;;;4.80;1.38;;;;;;;17.60;51.50;101929.31;4967321;28;123402;-76
2022/07/27 00:42:46;;;;;;;3.42;1.35;;;;;;;17.58;51.53;101920.53;4983630;28;123647;-76
2022/07/27 00:45:13;;;;;;;4.68;1.50;;;;;;;17.55;51.58;101920.69;4947643;28;119607;-76
2022/07/27 00:47:40;;;;;;;3.92;1.42;;;;;;;17.52;51.64;101921.72;4969678;28;119669;-77
2022/07/27 00:50:08;;;;;;;4.22;1.30;;;;;;;17.50;51.60;101928.16;4987371;28;125263;-76
2022/07/27 00:52:36;;;;;;;2.53;1.30;;;;;;;17.47;51.65;101917.59;4987696;28;124194;-76
2022/07/27 00:55:04;;;;;;;4.45;1.50;;;;;;;17.44;51.72;101924.00;4969540;28;118648;-77
2022/07/27 00:57:32;;;;;;;6.97;2.05;;;;;;;17.43;51.79;101921.41;4969979;28;117379;-77
2022/07/27 01:00:20;;;;;;;5.22;1.58;;;;;;;17.40;51.67;101926.91;4987261;28;124477;-76
2022/07/27 01:02:50;;;;;;;6.03;1.50;;;;;;;17.37;51.75;101921.75;4986342;28;123203;-78
2022/07/27 01:05:18;;;;;;;2.60;1.50;;;;;;;17.36;52.01;101922.69;4970026;28;118584;-78
2022/07/27 01:07:48;;;;;;;3.97;1.60;;;;;;;17.32;51.98;101922.84;4952933;28;118527;-76
2022/07/27 01:10:16;;;;;;;1.85;1.30;;;;;;;17.29;52.03;101920.38;4968897;28;123577;-76
2022/07/27 01:12:44;;;;;;;3.40;1.60;;;;;;;17.26;51.92;101920.53;4969566;28;123225;-76
2022/07/27 01:15:12;;;;;;;2.63;1.60;;;;;;;17.24;52.01;101927.78;4967736;28;119210;-76
2022/07/27 01:17:39;;;;;;;2.85;1.40;;;;;;;17.22;51.92;101918.97;4968526;28;118249;-76
2022/07/27 01:20:06;;;;;;;2.33;1.30;;;;;;;17.19;51.96;101919.13;4969799;28;123558;-76
2022/07/27 01:22:33;;;;;;;2.88;1.58;;;;;;;17.17;52.15;101920.19;4983244;28;124514;-76
2022/07/27 01:25:00;;;;;;;2.83;1.48;;;;;;;17.15;52.02;101927.44;4969759;28;119093;-78
2022/07/27 01:27:27;;;;;;;3.35;1.40;;;;;;;17.11;51.95;101921.38;4988039;28;118972;-76
2022/07/27 01:29:55;;;;;;;5.35;1.58;;;;;;;17.08;52.13;101921.53;4969369;28;122963;-76
2022/07/27 01:32:22;;;;;;;2.28;1.17;;;;;;;17.05;52.12;101924.41;4987593;28;124059;-77
2022/07/27 01:34:49;;;;;;;2.30;1.50;;;;;;;17.01;52.13;101925.50;4968429;28;120999;-77
2022/07/27 01:37:16;;;;;;;3.17;1.40;;;;;;;16.97;52.35;101923.94;4970348;28;119583;-77
2022/07/27 01:39:43;;;;;;;4.85;1.42;;;;;;;16.91;52.40;101920.69;4969354;28;123903;-77
2022/07/27 01:42:10;;;;;;;3.20;1.48;;;;;;;16.87;52.42;101919.09;4967311;28;123816;-77
2022/07/27 01:44:37;;;;;;;3.92;1.55;;;;;;;16.84;52.48;101919.28;4965523;28;120500;-77
2022/07/27 01:47:05;;;;;;;3.15;1.40;;;;;;;16.82;52.56;101920.25;4968891;28;118654;-78
2022/07/27 01:49:40;;;;;;;3.33;1.60;;;;;;;16.77;52.48;101917.84;4968719;28;123782;-78
2022/07/27 01:52:07;;;;;;;4.55;1.58;;;;;;;16.73;52.41;101922.50;4986777;28;123754;-77
2022/07/27 01:54:34;;;;;;;5.07;1.80;;;;;;;16.70;52.45;101921.78;4984341;28;120007;-78
2022/07/27 01:57:01;;;;;;;3.00;1.40;;;;;;;16.66;52.70;101920.22;4965916;28;118975;-78
2022/07/27 01:59:28;;;;;;;3.95;1.65;;;;;;;16.61;52.70;101916.94;4964796;28;124122;-77
2022/07/27 02:01:55;;;;;;;5.82;1.45;;;;;;;16.57;52.96;101920.72;4986235;28;123935;-77
2022/07/27 02:04:23;;;;;;;4.50;1.60;;;;;;;16.54;52.98;101927.09;4970510;28;118800;-77
2022/07/27 02:06:50;;;;;;;3.67;1.65;;;;;;;16.52;53.07;101920.97;4986080;28;118861;-77
2022/07/27 02:09:18;;;;;;;5.07;1.60;;;;;;;16.49;52.97;101918.44;4986297;28;124709;-77
2022/07/27 02:14:31;;;;;;;;;;;;;;;16.41;52.38;101921.53;4986116;28;119606;-77
2022/07/27 02:16:58;;;;;;;4.43;1.63;;;;;;;16.38;52.84;101915.47;4986577;28;119169;-78
2022/07/27 02:19:27;;;;;;;4.13;1.80;;;;;;;16.35;52.92;101911.16;4986504;28;123836;-77
2022/07/27 02:21:54;;;;;;;2.63;1.70;;;;;;;16.32;53.06;101917.50;4966483;28;124381;-77
2022/07/27 02:24:21;;;;;;;4.82;1.80;;;;;;;16.29;53.17;101911.47;4986046;28;119995;-77
2022/07/27 02:26:48;;;;;;;5.00;1.85;;;;;;;16.27;53.15;101913.34;4986576;28;120158;-77
2022/07/27 02:29:15;;;;;;;3.58;1.77;;;;;;;16.25;53.12;101915.25;4965327;28;123199;-77
2022/07/27 02:31:42;;;;;;;4.38;1.83;;;;;;;16.22;53.16;101910.03;4984604;28;122627;-77
2022/07/27 02:34:10;;;;;;;3.15;1.90;;;;;;;16.19;53.21;101910.22;4984118;28;118035;-77
2022/07/27 02:36:37;;;;;;;3.83;1.95;;;;;;;16.14;53.24;101903.31;4967470;28;118373;-77
2022/07/27 02:39:04;;;;;;;2.72;1.90;;;;;;;16.12;53.09;101907.00;4985814;28;124096;-77
2022/07/27 02:41:31;;;;;;;5.10;2.08;;;;;;;16.09;53.15;101904.50;4968680;28;125117;-77
2022/07/27 02:43:58;;;;;;;4.22;2.30;;;;;;;16.05;53.22;101909.13;4986341;28;119287;-78
2022/07/27 02:46:25;;;;;;;7.60;2.20;;;;;;;16.00;53.39;101900.47;4986788;28;119980;-77
2022/07/27 02:48:53;;;;;;;3.65;2.05;;;;;;;15.97;53.32;101903.28;4983301;28;125433;-77
2022/07/27 02:51:20;;;;;;;3.50;2.15;;;;;;;15.93;53.36;101899.03;4968776;28;123780;-77
2022/07/27 02:53:47;;;;;;;3.67;1.92;;;;;;;15.90;53.48;101901.91;4985887;28;119244;-77
2022/07/27 02:56:14;;;;;;;3.67;1.92;;;;;;;15.87;53.54;101900.22;4967466;28;117768;-77
2022/07/27 02:58:41;;;;;;;3.35;1.88;;;;;;;15.84;53.50;101904.84;4981292;28;124005;-77
2022/07/27 03:01:08;;;;;;;3.35;2.10;;;;;;;15.82;53.56;101901.41;4966210;28;122873;-77
2022/07/27 03:03:36;;;;;;;5.00;2.08;;;;;;;15.80;53.60;101903.28;4965715;28;118737;-77
2022/07/27 03:06:07;;;;;;;3.90;1.88;;;;;;;15.76;53.74;101908.81;4968445;28;118475;-77
2022/07/27 03:08:35;;;;;;;4.43;1.85;;;;;;;15.72;53.59;101901.81;4951607;28;123581;-77
2022/07/27 03:11:02;;;;;;;3.88;2.42;;;;;;;15.70;53.55;101914.38;4966392;28;123177;-77
2022/07/27 03:13:30;;;;;;;3.30;1.90;;;;;;;15.66;53.67;101907.47;4950789;28;119285;-77
2022/07/27 03:15:57;;;;;;;6.18;2.30;;;;;;;15.62;53.50;101900.56;4968193;28;120282;-77
2022/07/27 03:18:24;;;;;;;3.50;1.77;;;;;;;15.59;53.55;101900.69;4967920;28;123731;-77
2022/07/27 03:20:51;;;;;;;5.88;2.30;;;;;;;15.56;53.48;101899.06;4967315;28;122288;-77
2022/07/27 03:23:19;;;;;;;4.60;1.88;;;;;;;15.52;53.45;101904.59;4985779;28;119120;-77
2022/07/27 03:25:46;;;;;;;4.47;2.10;;;;;;;15.48;53.57;101898.56;4967841;28;118317;-77
2022/07/27 03:28:13;;;;;;;4.40;2.10;;;;;;;15.46;53.78;101902.25;4985556;28;123780;-77
2022/07/27 03:30:40;;;;;;;4.35;1.77;;;;;;;15.43;53.78;101905.09;4984466;28;124134;-77
2022/07/27 03:33:07;;;;;;;3.78;2.33;;;;;;;15.40;53.92;101900.72;4967518;28;119436;-77
2022/07/27 03:35:34;;;;;;;3.75;2.03;;;;;;;15.38;54.05;101906.16;4984457;28;118457;-77
2022/07/27 03:38:02;;;;;;;3.92;2.40;;;;;;;15.34;53.99;101907.22;4950939;28;122407;-77
2022/07/27 03:40:31;;;;;;;6.63;2.42;;;;;;;15.32;54.07;101902.91;4967407;28;123764;-77
2022/07/27 03:42:59;;;;;;;5.63;2.17;;;;;;;15.29;54.38;101903.91;4983929;28;119250;-77
2022/07/27 03:45:26;;;;;;;3.90;2.13;;;;;;;15.28;54.36;101912.88;4971724;28;118472;-76
2022/07/27 03:47:54;;;;;;;3.55;2.42;;;;;;;15.27;54.51;101919.13;4973281;28;122298;-76
2022/07/27 03:50:21;;;;;;;4.45;1.95;;;;;;;15.26;54.78;101925.44;5000951;28;124029;-76
2022/07/27 03:52:49;;;;;;;3.53;2.00;;;;;;;15.23;54.41;101925.56;4976552;28;118953;-76
2022/07/27 03:55:18;;;;;;;3.60;2.08;;;;;;;15.21;54.37;101927.44;5007771;28;119723;-77
2022/07/27 03:57:45;;;;;;;3.63;2.20;;;;;;;15.19;54.61;101924.84;4972489;28;123601;-76
2022/07/27 04:00:13;;;;;;;5.38;2.20;;;;;;;15.17;54.46;101920.53;4982594;28;123270;-76
2022/07/27 04:02:40;;;;;;;6.53;2.45;;;;;;;15.15;54.66;101922.41;4979514;28;120195;-76
2022/07/27 04:05:08;;;;;;;4.78;2.15;;;;;;;15.14;55.00;101920.66;4984648;28;120048;-76
2022/07/27 04:07:35;;;;;;;6.45;2.60;;;;;;;15.14;54.85;101926.00;4964913;28;122105;-76
2022/07/27 04:10:04;;;;;;;4.30;2.38;;;;;;;15.13;54.98;101929.63;4987621;28;123281;-76
2022/07/27 04:12:31;;;;;;;4.00;2.22;;;;;;;15.12;55.09;101925.19;4969919;28;118273;-76
2022/07/27 04:14:58;;;;;;;4.93;2.38;;;;;;;15.13;55.32;101924.28;4969320;28;117040;-76
2022/07/27 04:17:25;;;;;;;4.72;2.47;;;;;;;15.12;55.21;101925.19;4969607;28;123064;-76
2022/07/27 04:20:13;;;;;;;5.03;2.58;;;;;;;15.13;55.42;101924.28;4984110;28;124733;-76
2022/07/27 04:22:40;;;;;;;4.43;2.70;;;;;;;15.12;55.26;101925.19;4969402;28;119274;-76
2022/07/27 04:25:08;;;;;;;5.70;2.60;;;;;;;15.13;55.20;101918.94;4988038;28;118697;-76
2022/07/27 04:27:35;;;;;;;6.65;2.72;;;;;;;15.12;55.25;101922.53;4987499;28;123634;-77
2022/07/27 04:30:04;;;;;;;7.15;2.65;;;;;;;15.11;55.51;101926.16;4984427;28;123193;-76
2022/07/27 04:32:36;;;;;;;4.45;2.72;;;;;;;15.11;55.37;101926.16;4954885;28;118779;-76
2022/07/27 04:35:05;;;;;;;5.45;2.83;;;;;;;15.10;55.55;101924.41;4969610;28;118709;-76
2022/07/27 04:37:33;;;;;;;6.10;2.92;;;;;;;15.11;55.62;101923.50;4988020;28;124162;-76
2022/07/27 04:40:01;;;;;;;6.63;2.70;;;;;;;15.13;55.71;101934.94;4967331;28;123274;-76
2022/07/27 04:42:28;;;;;;;7.50;2.97;;;;;;;15.15;55.83;101930.41;4983406;28;119873;-76
2022/07/27 04:44:56;;;;;;;4.95;2.70;;;;;;;15.17;56.06;101931.19;4970610;28;119187;-76
2022/07/27 04:47:23;;;;;;;3.75;2.53;;;;;;;15.20;55.80;101933.72;4986483;28;123942;-76
2022/07/27 04:49:50;;;;;;;3.97;2.50;;;;;;;15.24;55.91;101937.09;4987790;28;124112;-76
2022/07/27 04:52:18;;;;;;;5.68;2.70;;;;;;;15.26;56.07;101936.09;4966940;28;120887;-76
2022/07/27 04:54:53;;;;;;;5.57;2.65;;;;;;;15.28;55.98;101934.22;4967410;28;119245;-76
2022/07/27 04:57:21;;;;;;;4.00;2.78;;;;;;;15.31;56.19;101934.09;4967096;28;124078;-76
2022/07/27 04:59:48;;;;;;;5.95;2.80;;;;;;;15.34;55.90;101928.59;4968917;28;123343;-76
2022/07/27 05:02:16;;;;;;;4.45;2.63;;;;;;;15.37;56.25;101939.13;4986132;28;119605;-77
2022/07/27 05:04:43;;;;;;;6.65;2.95;;;;;;;15.41;56.26;101938.97;4969702;28;118469;-76
2022/07/27 05:07:10;;;;;;;4.45;2.70;;;;;;;15.44;56.43;101933.50;4983848;28;124146;-77
2022/07/27 05:09:37;;;;;;;8.55;2.92;;;;;;;15.47;56.34;101944.03;4985919;28;122737;-76
2022/07/27 05:12:04;;;;;;;5.05;2.72;;;;;;;15.50;56.12;101943.88;4986732;28;118977;-76
2022/07/27 05:14:31;;;;;;;6.30;2.65;;;;;;;15.53;56.44;101943.72;4969533;28;118665;-76
2022/07/27 05:16:58;;;;;;;4.80;2.60;;;;;;;15.56;56.32;101948.94;4956171;28;123218;-76
2022/07/27 05:19:26;;;;;;;6.35;2.97;;;;;;;15.59;56.20;101948.75;4970564;28;122828;-76
2022/07/27 05:22:08;;;;;;;6.93;3.05;;;;;;;15.59;56.31;101948.75;4983059;28;119115;-76
2022/07/27 05:24:35;;;;;;;6.97;3.45;;;;;;;15.59;56.40;101954.09;4953349;28;118402;-76
2022/07/27 05:27:02;;;;;;;5.72;2.85;;;;;;;15.61;56.74;101952.22;4983455;28;123431;-76
2022/07/27 05:29:29;;;;;;;6.43;3.20;;;;;;;15.67;56.58;101957.28;4985061;28;123737;-76
2022/07/27 05:31:56;;;;;;;4.72;3.10;;;;;;;15.73;56.85;101951.69;4985855;28;119434;-76
2022/07/27 05:34:23;;;;;;;6.38;3.08;;;;;;;15.80;57.15;101951.38;4968367;28;117779;-76
2022/07/27 05:36:50;;;;;;;5.50;3.08;;;;;;;15.84;56.90;101953.81;4985024;28;124369;-76
2022/07/27 05:39:17;;;;;;;6.00;3.42;;;;;;;15.91;57.22;101949.03;4986370;28;123895;-75
2022/07/27 05:41:45;;;;;;;6.22;3.70;;;;;;;15.99;57.30;101952.16;4965680;28;120104;-75
2022/07/27 05:44:15;;;;;;;6.45;2.95;;;;;;;16.06;57.45;101958.09;4981912;28;119358;-76
2022/07/27 05:46:43;;;;;;;5.47;3.40;;;;;;;16.13;57.76;101955.03;4984480;28;122810;-74
2022/07/27 05:49:11;;;;;;;6.18;3.47;;;;;;;16.23;57.84;101959.91;4974651;28;123587;-75
2022/07/27 05:51:38;;;;;;;7.57;2.85;;;;;;;16.31;57.84;101957.69;4987241;28;119048;-76
2022/07/27 05:54:06;;;;;;;6.32;3.30;;;;;;;16.41;57.99;101958.97;4968538;28;118205;-75
2022/07/27 05:56:34;;;;;;;5.80;3.13;;;;;;;16.53;58.03;101958.31;4984561;28;124498;-75
2022/07/27 05:59:01;;;;;;;4.65;2.70;;;;;;;16.64;58.23;101964.94;4984326;28;123237;-75
2022/07/27 06:01:33;;;;;;;5.80;2.70;;;;;;;16.78;58.31;101962.38;4981345;28;119723;-73
2022/07/27 06:04:00;;;;;;;5.65;3.00;;;;;;;16.90;58.30;101961.75;4964858;28;119055;-75
2022/07/27 06:09:13;;;;;;;;;;;;;;;17.16;57.55;101966.63;4984627;28;123694;-76
2022/07/27 06:11:41;;;;;;;4.68;2.60;;;;;;;17.28;57.58;101966.81;4968541;28;118423;-77
2022/07/27 06:14:09;;;;;;;5.30;2.55;;;;;;;17.41;57.57;101972.38;4984195;28;119371;-76
2022/07/27 06:16:36;;;;;;;3.90;2.63;;;;;;;17.54;57.46;101977.91;4949918;28;124917;-76
2022/07/27 06:19:03;;;;;;;5.60;2.70;;;;;;;17.66;57.32;101981.69;4968305;28;123280;-76
2022/07/27 06:21:30;;;;;;;7.00;2.65;;;;;;;17.79;57.36;101976.50;4984753;28;119840;-75
2022/07/27 06:23:57;;;;;;;5.82;3.17;;;;;;;17.92;57.18;101974.88;4968630;28;118361;-75
2022/07/27 06:26:24;;;;;;;4.15;2.75;;;;;;;18.05;56.96;101978.56;4968561;28;125267;-75
2022/07/27 06:28:57;;;;;;;5.25;2.58;;;;;;;18.17;56.89;101981.47;4968954;28;124270;-75
2022/07/27 06:31:25;;;;;;;5.57;2.42;;;;;;;18.30;56.87;101977.13;4966243;28;120479;-75
2022/07/27 06:33:55;;;;;;;3.58;2.30;;;;;;;18.45;56.55;101981.56;4984926;28;118990;-75
2022/07/27 06:36:26;;;;;;;5.45;2.30;;;;;;;18.59;56.33;101977.19;4968938;28;123782;-75
2022/07/27 06:38:53;;;;;;;3.40;1.55;;;;;;;18.73;56.07;101984.41;4968217;28;123905;-77
2022/07/27 06:41:20;;;;;;;5.82;2.03;;;;;;;18.85;55.85;101989.03;4957926;28;119001;-74
2022/07/27 06:43:47;;;;;;;4.72;2.03;;;;;;;18.98;55.61;101990.00;4971251;28;118855;-74
2022/07/27 06:46:14;;;;;;;4.78;2.40;;;;;;;19.12;55.64;101986.47;4968751;28;123081;-74
2022/07/27 06:48:41;;;;;;;2.78;2.10;;;;;;;19.28;55.60;101985.50;4983859;28;123890;-74
2022/07/27 06:51:09;;;;;;;4.38;2.20;;;;;;;19.40;55.17;101990.06;4957698;28;119653;-74
2022/07/27 06:53:36;;;;;;;3.25;2.05;;;;;;;19.54;54.76;101992.75;4986341;28;120039;-75
2022/07/27 06:56:04;;;;;;;6.75;2.05;;;;;;;19.65;54.61;101990.22;4964866;28;123535;-75
2022/07/27 06:58:32;;;;;;;4.40;1.85;;;;;;;19.79;54.71;101999.22;4965611;28;124414;-75
2022/07/27 07:01:01;;;;;;;5.57;1.95;;;;;;;19.94;54.45;101990.16;4985672;28;119436;-75
2022/07/27 07:03:29;;;;;;;2.85;2.03;;;;;;;20.08;54.14;101997.31;4982193;28;119589;-75
2022/07/27 07:05:56;;;;;;;5.50;1.88;;;;;;;20.18;53.37;102000.25;4986121;28;124152;-75
2022/07/27 07:08:23;;;;;;;2.28;1.13;;;;;;;20.27;52.97;102002.31;4982313;28;124224;-75
2022/07/27 07:10:51;;;;;;;5.20;1.50;;;;;;;20.33;52.70;102001.91;4959148;28;118759;-75
2022/07/27 07:13:18;;;;;;;3.83;1.25;;;;;;;20.41;52.46;102001.38;4984846;28;119883;-75
2022/07/27 07:15:45;;;;;;;2.30;1.02;;;;;;;20.51;52.09;102001.59;4984804;28;122910;-73
2022/07/27 07:18:12;;;;;;;3.70;1.13;;;;;;;20.62;52.06;102007.13;4951885;28;122913;-73
2022/07/27 07:20:40;;;;;;;3.00;1.00;;;;;;;20.69;51.68;102003.06;4975885;28;120631;-73
2022/07/27 07:23:07;;;;;;;1.65;1.00;;;;;;;20.80;51.45;102005.88;4968204;28;118686;-73
2022/07/27 07:25:35;;;;;;;2.10;1.00;;;;;;;20.93;51.53;102005.03;4985193;28;124529;-73
2022/07/27 07:28:03;;;;;;;2.30;0.98;;;;;;;21.05;51.30;102004.13;4984480;28;124257;-73
2022/07/27 07:30:30;;;;;;;2.05;0.90;;;;;;;21.14;50.95;102003.47;4968644;28;119604;-73
2022/07/27 07:32:58;;;;;;;1.42;0.80;;;;;;;21.19;50.62;102001.31;4967944;28;118848;-73
2022/07/27 07:35:26;;;;;;;3.15;1.02;;;;;;;21.24;50.16;102002.81;4964676;28;123266;-73
2022/07/27 07:37:53;;;;;;;2.25;0.90;;;;;;;21.27;50.03;102013.41;4985695;28;123503;-73
2022/07/27 07:40:20;;;;;;;3.22;0.90;;;;;;;21.31;49.97;102004.97;4967717;28;119150;-74
2022/07/27 07:43:07;;;;;;;2.58;1.10;;;;;;;21.35;49.95;102011.00;4967333;28;118324;-73
2022/07/27 07:45:36;;;;;;;2.47;1.00;;;;;;;21.39;49.74;102012.50;4984152;28;124466;-74
2022/07/27 07:48:18;;;;;;;3.53;1.00;;;;;;;21.45;49.45;102012.06;4957465;28;124569;-74
2022/07/27 07:50:46;;;;;;;2.70;1.05;;;;;;;21.51;49.53;102011.66;4977303;28;119748;-74
2022/07/27 07:53:22;;;;;;;4.00;1.23;;;;;;;21.58;49.66;102012.03;4992313;28;118928;-74
2022/07/27 07:55:55;;;;;;;3.35;0.95;;;;;;;21.64;49.28;102021.53;4970534;28;123316;-74
2022/07/27 07:58:22;;;;;;;5.03;1.10;;;;;;;21.70;49.18;102023.75;4972294;28;123847;-74
2022/07/27 08:00:49;;;;;;;2.72;1.10;;;;;;;21.75;49.03;102024.28;4971404;28;119311;-74
2022/07/27 08:03:17;;;;;;;3.38;1.10;;;;;;;21.82;48.93;102025.56;4987226;28;119381;-74
2022/07/27 08:05:44;;;;;;;3.08;0.90;;;;;;;21.88;48.54;102029.66;4988871;28;123892;-74
2022/07/27 08:08:11;;;;;;;1.67;0.80;;;;;;;21.94;48.15;102030.06;4988014;28;124364;-74
2022/07/27 08:10:39;;;;;;;2.78;1.05;;;;;;;21.97;47.83;102029.81;4985974;28;120818;-74
2022/07/27 08:13:07;;;;;;;3.63;1.02;;;;;;;22.01;47.85;102035.00;4986715;28;119929;-74
2022/07/27 08:15:34;;;;;;;2.65;0.70;;;;;;;22.05;47.50;102036.47;4980859;28;124393;-74
2022/07/27 08:18:04;;;;;;;2.67;0.80;;;;;;;22.07;47.36;102023.72;4968510;28;125034;-74
2022/07/27 08:20:33;;;;;;;3.25;0.90;;;;;;;22.12;47.32;102024.25;4987417;28;119962;-74
2022/07/27 08:23:01;;;;;;;3.63;0.90;;;;;;;22.17;47.06;102024.78;4969792;28;119142;-74
2022/07/27 08:25:28;;;;;;;3.90;0.80;;;;;;;22.21;47.00;102031.66;4969724;28;123450;-74
2022/07/27 08:27:56;;;;;;;2.28;0.80;;;;;;;22.26;46.57;102029.50;4987784;28;124758;-73
2022/07/27 08:30:23;;;;;;;2.88;0.85;;;;;;;22.29;46.37;102031.97;4987744;28;119570;-74
2022/07/27 08:32:53;;;;;;;2.22;0.93;;;;;;;22.32;46.02;102029.03;4983660;28;119220;-73
2022/07/27 08:35:21;;;;;;;2.75;0.90;;;;;;;22.34;45.95;102032.47;4980331;28;124275;-74
2022/07/27 08:37:48;;;;;;;3.47;0.90;;;;;;;22.39;45.72;102028.56;4969376;28;123474;-73
2022/07/27 08:40:16;;;;;;;3.75;0.88;;;;;;;22.40;45.85;102035.69;4985572;28;119306;-73
2022/07/27 08:43:04;;;;;;;1.77;0.82;;;;;;;22.43;46.11;102030.03;4985532;28;118957;-74
2022/07/27 08:45:32;;;;;;;2.90;0.90;;;;;;;22.48;45.87;102033.25;4968550;28;125799;-73
2022/07/27 08:48:00;;;;;;;2.65;1.00;;;;;;;22.53;45.21;102041.88;4987452;28;123815;-73
2022/07/27 08:50:29;;;;;;;4.53;1.27;;;;;;;22.56;45.56;102036.22;4986666;28;119447;-73
2022/07/27 08:53:05;;;;;;;2.45;0.93;;;;;;;22.58;45.30;102030.72;4969910;28;118379;-75
2022/07/27 08:55:34;;;;;;;5.75;0.90;;;;;;;22.59;45.20;102025.19;4949764;28;121363;-75
2022/07/27 08:58:02;;;;;;;3.75;1.10;;;;;;;22.63;45.02;102029.38;4966213;28;123678;-75
2022/07/27 09:00:31;;;;;;;1.92;0.80;;;;;;;22.68;44.77;102029.88;4974959;28;120458;-76
2022/07/27 09:02:59;;;;;;;2.58;0.93;;;;;;;22.76;44.90;102031.13;4969622;28;118871;-76
2022/07/27 09:05:27;;;;;;;1.95;0.80;;;;;;;22.84;44.58;102028.69;4970221;28;124166;-76
2022/07/27 09:08:15;;;;;;;1.40;0.80;;;;;;;22.97;44.86;102018.63;4985990;28;123544;-76
2022/07/27 09:10:43;;;;;;;2.72;0.80;;;;;;;23.11;44.30;102021.16;4988478;28;120018;-75
2022/07/27 09:13:26;;;;;;;4.35;1.00;;;;;;;23.24;43.93;102012.03;4973791;28;118559;-76
2022/07/27 09:15:56;;;;;;;2.15;0.70;;;;;;;23.36;43.43;102013.78;4968958;28;124192;-76
2022/07/27 09:18:44;;;;;;;1.50;0.73;;;;;;;23.50;43.14;102010.78;4961810;28;123377;-76
2022/07/27 09:21:17;;;;;;;2.15;0.68;;;;;;;23.62;42.73;102014.34;4970597;28;120150;-76
2022/07/27 09:23:58;;;;;;;3.60;1.00;;;;;;;23.73;42.12;102021.56;4969474;28;118297;-76
2022/07/27 09:26:28;;;;;;;2.83;0.90;;;;;;;23.81;41.83;102019.13;4953193;28;123879;-76
2022/07/27 09:29:02;;;;;;;3.00;0.80;;;;;;;23.88;41.63;102020.34;4986615;28;124267;-75
2022/07/27 09:31:30;;;;;;;3.28;0.75;;;;;;;23.93;41.59;102021.81;4971056;28;118875;-76
2022/07/27 09:34:00;;;;;;;1.80;0.80;;;;;;;23.99;41.57;102015.88;4991760;28;118640;-75
2022/07/27 09:36:28;;;;;;;1.42;0.73;;;;;;;24.05;40.87;102023.47;4989591;28;125358;-75
2022/07/27 09:39:04;;;;;;;3.40;0.80;;;;;;;24.10;40.76;102015.84;4987039;28;122779;-74
2022/07/27 09:41:40;;;;;;;3.20;0.80;;;;;;;24.15;41.11;102016.31;4969610;28;119378;-74
2022/07/27 09:44:07;;;;;;;0.90;0.70;;;;;;;24.21;40.53;102020.34;4969691;28;119009;-74
2022/07/27 09:46:54;;;;;;;1.77;0.80;;;;;;;24.21;40.71;102015.78;4986055;28;123898;-74
2022/07/27 09:49:33;;;;;;;1.42;0.68;;;;;;;24.21;40.65;102013.09;4969357;28;122793;-74
2022/07/27 09:52:02;;;;;;;3.95;0.90;;;;;;;24.26;40.49;102008.16;4986911;28;120332;-74
2022/07/27 09:54:44;;;;;;;4.45;1.02;;;;;;;24.36;40.23;102013.63;4969607;28;119416;-73
2022/07/27 09:57:11;;;;;;;1.85;0.80;;;;;;;24.45;40.19;102022.84;4968600;28;123214;-75
2022/07/27 09:59:38;;;;;;;2.00;0.90;;;;;;;24.50;39.72;102028.69;4968370;28;123436;-75
2022/07/27 10:02:06;;;;;;;2.55;0.90;;;;;;;24.50;39.03;102031.41;4981497;28;119202;-82
2022/07/27 10:04:33;;;;;;;1.48;0.70;;;;;;;24.50;39.11;102020.56;4984653;28;117095;-83
2022/07/27 10:07:01;;;;;;;1.58;0.77;;;;;;;24.53;39.24;102024.91;4978731;28;124286;-82
2022/07/27 10:09:33;;;;;;;2.97;0.80;;;;;;;24.53;39.29;102020.34;4991714;28;123373;-82
2022/07/27 10:12:03;;;;;;;1.20;0.70;;;;;;;24.56;39.10;102020.06;4963336;28;118538;-82
2022/07/27 10:14:52;;;;;;;3.20;0.90;;;;;;;24.64;39.53;102017.56;4995250;28;120038;-82
2022/07/27 10:17:19;;;;;;;1.38;0.80;;;;;;;24.73;38.42;102015.03;4994226;28;125284;-82
2022/07/27 10:19:50;;;;;;;1.75;0.80;;;;;;;24.79;38.62;102014.50;4997239;28;124586;-82
2022/07/27 10:22:52;;;;;;;2.53;1.00;;;;;;;24.88;38.53;102013.69;5001628;28;119685;-83
2022/07/27 10:25:42;;;;;;;3.75;0.90;;;;;;;24.98;37.98;102011.91;5002259;28;118252;-83
2022/07/27 10:28:58;;;;;;;2.22;0.80;;;;;;;25.05;38.12;102004.97;4986601;28;123512;-83
2022/07/27 10:31:28;;;;;;;3.60;0.90;;;;;;;25.10;37.68;101995.56;4966686;28;123283;-83
2022/07/27 10:33:59;;;;;;;5.28;1.00;;;;;;;25.15;37.21;101994.16;4993698;28;118483;-83
2022/07/27 10:36:28;;;;;;;5.88;1.10;;;;;;;25.20;37.23;101996.44;4983896;28;119585;-81
2022/07/27 10:38:59;;;;;;;2.67;1.10;;;;;;;25.23;37.12;102001.63;4990355;28;123907;-79
2022/07/27 10:41:44;;;;;;;1.67;0.90;;;;;;;25.24;37.21;102003.34;4997507;28;125118;-79
2022/07/27 10:45:11;;;;;;;4.82;1.13;;;;;;;25.27;37.35;101997.66;5009458;28;121593;-80
2022/07/27 10:47:59;;;;;;;3.05;0.80;;;;;;;25.36;37.49;101995.97;5000725;28;120669;-79
2022/07/27 10:50:28;;;;;;;2.40;0.80;;;;;;;25.42;37.32;101990.00;4978419;28;123338;-81
2022/07/27 10:52:59;;;;;;;1.88;0.70;;;;;;;25.51;36.79;101989.16;4982528;28;123139;-82
2022/07/27 10:55:41;;;;;;;2.35;0.90;;;;;;;25.57;36.83;101988.59;4987215;28;118201;-80
2022/07/27 10:58:08;;;;;;;3.78;0.90;;;;;;;25.55;36.72;101989.75;4983987;28;118348;-81
2022/07/27 11:00:47;;;;;;;2.30;0.80;;;;;;;25.47;36.30;101981.44;4982235;28;122917;-77
2022/07/27 11:03:20;;;;;;;2.25;0.95;;;;;;;25.42;36.11;101977.28;4979485;28;122850;-81
2022/07/27 11:06:10;;;;;;;3.40;0.93;;;;;;;25.40;36.35;101979.28;4973461;28;118776;-81
2022/07/27 11:08:59;;;;;;;2.17;0.90;;;;;;;25.41;36.19;101972.88;4983371;28;118622;-81
2022/07/27 11:11:51;;;;;;;2.28;0.77;;;;;;;25.45;36.10;101979.72;4956371;28;123252;-80
2022/07/27 11:14:18;;;;;;;2.60;1.00;;;;;;;25.45;35.40;101960.75;4977251;28;123638;-80
2022/07/27 11:16:59;;;;;;;1.20;0.75;;;;;;;25.39;35.40;101972.16;4974420;28;118318;-81
2022/07/27 11:19:54;;;;;;;2.13;0.95;;;;;;;25.29;35.38;101963.13;4963076;28;118854;-80
2022/07/27 11:22:33;;;;;;;2.45;0.85;;;;;;;25.29;35.94;101973.13;4977124;28;123995;-81
2022/07/27 11:25:20;;;;;;;2.75;1.00;;;;;;;25.38;35.72;101978.56;4980914;28;123242;-81
2022/07/27 11:27:48;;;;;;;2.92;1.10;;;;;;;25.51;35.72;101966.63;4962104;28;118883;-81
2022/07/27 11:30:24;;;;;;;2.97;1.00;;;;;;;25.64;35.32;101972.63;4961983;28;117342;-81
2022/07/27 11:32:52;;;;;;;2.53;1.00;;;;;;;25.77;35.19;101959.66;4992353;28;123014;-83
2022/07/27 11:35:19;;;;;;;2.15;1.00;;;;;;;25.92;34.81;101964.66;4963161;28;123237;-85